sensor_id;sensor_type;location;lat;lon;timestamp;temperature;humidity
83596;HTU21D;73564;45.026;38.952;2024-02-04T00:00:30;9.42;65.86
83596;HTU21D;73564;45.026;38.952;2024-02-04T00:02:56;9.50;65.76
83596;HTU21D;73564;45.026;38.952;2024-02-04T00:05:22;9.55;65.10
83596;HTU21D;73564;45.026;38.952;2024-02-04T00:07:48;9.52;65.43
83596;HTU21D;73564;45.026;38.952;2024-02-04T00:10:14;9.54;65.30
83596;HTU21D;73564;45.026;38.952;2024-02-04T00:12:41;9.54;65.52
83596;HTU21D;73564;45.026;38.952;2024-02-04T00:15:07;9.55;65.28
83596;HTU21D;73564;45.026;38.952;2024-02-04T00:17:33;9.53;65.43
83596;HTU21D;73564;45.026;38.952;2024-02-04T00:20:00;9.52;65.43
83596;HTU21D;73564;45.026;38.952;2024-02-04T00:22:27;9.54;65.74
83596;HTU21D;73564;45.026;38.952;2024-02-04T00:24:53;9.62;65.97
83596;HTU21D;73564;45.026;38.952;2024-02-04T00:27:19;9.67;65.78
83596;HTU21D;73564;45.026;38.952;2024-02-04T00:29:45;9.74;65.84
83596;HTU21D;73564;45.026;38.952;2024-02-04T00:32:10;9.85;66.02
83596;HTU21D;73564;45.026;38.952;2024-02-04T00:34:36;9.99;65.98
83596;HTU21D;73564;45.026;38.952;2024-02-04T00:37:02;10.12;65.33
83596;HTU21D;73564;45.026;38.952;2024-02-04T00:39:28;10.14;65.02
83596;HTU21D;73564;45.026;38.952;2024-02-04T00:41:54;10.14;65.05
83596;HTU21D;73564;45.026;38.952;2024-02-04T00:44:19;10.13;65.00
83596;HTU21D;73564;45.026;38.952;2024-02-04T00:46:45;10.11;65.00
83596;HTU21D;73564;45.026;38.952;2024-02-04T00:49:11;10.12;65.06
83596;HTU21D;73564;45.026;38.952;2024-02-04T00:51:37;10.12;64.98
83596;HTU21D;73564;45.026;38.952;2024-02-04T00:54:02;10.07;64.82
83596;HTU21D;73564;45.026;38.952;2024-02-04T00:56:28;10.03;65.13
83596;HTU21D;73564;45.026;38.952;2024-02-04T00:58:54;10.05;65.64
83596;HTU21D;73564;45.026;38.952;2024-02-04T01:01:20;10.12;65.25
83596;HTU21D;73564;45.026;38.952;2024-02-04T01:03:45;10.12;65.17
83596;HTU21D;73564;45.026;38.952;2024-02-04T01:06:11;10.14;65.22
83596;HTU21D;73564;45.026;38.952;2024-02-04T01:08:37;10.15;65.27
83596;HTU21D;73564;45.026;38.952;2024-02-04T01:11:06;10.16;65.11
83596;HTU21D;73564;45.026;38.952;2024-02-04T01:13:31;10.15;65.35
83596;HTU21D;73564;45.026;38.952;2024-02-04T01:15:57;10.21;65.51
83596;HTU21D;73564;45.026;38.952;2024-02-04T01:18:23;10.24;65.12
83596;HTU21D;73564;45.026;38.952;2024-02-04T01:20:49;10.26;65.16
83596;HTU21D;73564;45.026;38.952;2024-02-04T01:23:15;10.27;64.95
83596;HTU21D;73564;45.026;38.952;2024-02-04T01:25:43;10.27;65.16
83596;HTU21D;73564;45.026;38.952;2024-02-04T01:28:09;10.26;64.43
83596;HTU21D;73564;45.026;38.952;2024-02-04T01:30:35;10.15;64.79
83596;HTU21D;73564;45.026;38.952;2024-02-04T01:33:03;10.09;64.79
83596;HTU21D;73564;45.026;38.952;2024-02-04T01:35:29;10.00;64.84
83596;HTU21D;73564;45.026;38.952;2024-02-04T01:37:54;9.94;64.97
83596;HTU21D;73564;45.026;38.952;2024-02-04T01:40:20;9.89;64.94
83596;HTU21D;73564;45.026;38.952;2024-02-04T01:42:46;9.84;65.08
83596;HTU21D;73564;45.026;38.952;2024-02-04T01:45:12;9.82;65.38
83596;HTU21D;73564;45.026;38.952;2024-02-04T01:47:37;9.80;65.04
83596;HTU21D;73564;45.026;38.952;2024-02-04T01:50:03;9.78;65.08
83596;HTU21D;73564;45.026;38.952;2024-02-04T01:52:33;9.75;65.27
83596;HTU21D;73564;45.026;38.952;2024-02-04T01:55:00;9.74;65.63
83596;HTU21D;73564;45.026;38.952;2024-02-04T01:57:27;9.84;65.71
83596;HTU21D;73564;45.026;38.952;2024-02-04T01:59:53;9.92;65.45
83596;HTU21D;73564;45.026;38.952;2024-02-04T02:02:21;9.98;65.24
83596;HTU21D;73564;45.026;38.952;2024-02-04T02:04:47;9.94;64.81
83596;HTU21D;73564;45.026;38.952;2024-02-04T02:07:13;9.86;64.71
83596;HTU21D;73564;45.026;38.952;2024-02-04T02:09:42;9.80;64.93
83596;HTU21D;73564;45.026;38.952;2024-02-04T02:12:14;9.76;65.16
83596;HTU21D;73564;45.026;38.952;2024-02-04T02:14:44;9.72;65.10
83596;HTU21D;73564;45.026;38.952;2024-02-04T02:17:14;9.70;64.78
83596;HTU21D;73564;45.026;38.952;2024-02-04T02:23:08;9.56;65.22
83596;HTU21D;73564;45.026;38.952;2024-02-04T02:25:38;9.52;65.37
83596;HTU21D;73564;45.026;38.952;2024-02-04T02:28:04;9.52;65.77
83596;HTU21D;73564;45.026;38.952;2024-02-04T02:30:30;9.56;65.62
83596;HTU21D;73564;45.026;38.952;2024-02-04T02:32:56;9.66;65.48
83596;HTU21D;73564;45.026;38.952;2024-02-04T02:35:23;9.71;65.38
83596;HTU21D;73564;45.026;38.952;2024-02-04T02:41:03;9.80;65.24
83596;HTU21D;73564;45.026;38.952;2024-02-04T02:43:30;9.82;65.48
83596;HTU21D;73564;45.026;38.952;2024-02-04T02:45:57;9.85;65.08
83596;HTU21D;73564;45.026;38.952;2024-02-04T02:48:24;9.86;65.59
83596;HTU21D;73564;45.026;38.952;2024-02-04T02:50:50;9.92;65.38
83596;HTU21D;73564;45.026;38.952;2024-02-04T02:53:15;9.98;65.08
83596;HTU21D;73564;45.026;38.952;2024-02-04T02:55:44;10.00;64.95
83596;HTU21D;73564;45.026;38.952;2024-02-04T02:58:13;9.99;64.71
83596;HTU21D;73564;45.026;38.952;2024-02-04T03:00:39;9.95;64.82
83596;HTU21D;73564;45.026;38.952;2024-02-04T03:03:05;9.85;64.93
83596;HTU21D;73564;45.026;38.952;2024-02-04T03:05:31;9.80;65.03
83596;HTU21D;73564;45.026;38.952;2024-02-04T03:07:58;9.74;65.14
83596;HTU21D;73564;45.026;38.952;2024-02-04T03:10:24;9.72;65.52
83596;HTU21D;73564;45.026;38.952;2024-02-04T03:12:50;9.77;65.49
83596;HTU21D;73564;45.026;38.952;2024-02-04T03:15:15;9.84;65.41
83596;HTU21D;73564;45.026;38.952;2024-02-04T03:17:44;9.86;65.33
83596;HTU21D;73564;45.026;38.952;2024-02-04T03:20:10;9.83;65.62
83596;HTU21D;73564;45.026;38.952;2024-02-04T03:22:37;9.91;65.52
83596;HTU21D;73564;45.026;38.952;2024-02-04T03:25:02;9.93;65.58
83596;HTU21D;73564;45.026;38.952;2024-02-04T03:27:28;10.00;65.59
83596;HTU21D;73564;45.026;38.952;2024-02-04T03:29:54;10.08;65.53
83596;HTU21D;73564;45.026;38.952;2024-02-04T03:32:21;10.13;65.24
83596;HTU21D;73564;45.026;38.952;2024-02-04T03:34:47;10.16;65.31
83596;HTU21D;73564;45.026;38.952;2024-02-04T03:37:13;10.16;65.04
83596;HTU21D;73564;45.026;38.952;2024-02-04T03:39:39;10.12;65.46
83596;HTU21D;73564;45.026;38.952;2024-02-04T03:42:04;10.15;65.37
83596;HTU21D;73564;45.026;38.952;2024-02-04T03:44:30;10.21;65.36
83596;HTU21D;73564;45.026;38.952;2024-02-04T03:46:56;10.22;65.04
83596;HTU21D;73564;45.026;38.952;2024-02-04T03:49:22;10.23;65.53
83596;HTU21D;73564;45.026;38.952;2024-02-04T03:51:48;10.31;65.34
83596;HTU21D;73564;45.026;38.952;2024-02-04T03:54:14;10.39;65.11
83596;HTU21D;73564;45.026;38.952;2024-02-04T03:56:40;10.41;64.79
83596;HTU21D;73564;45.026;38.952;2024-02-04T03:59:08;10.42;65.08
83596;HTU21D;73564;45.026;38.952;2024-02-04T04:01:34;10.44;64.85
83596;HTU21D;73564;45.026;38.952;2024-02-04T04:04:00;10.44;65.11
83596;HTU21D;73564;45.026;38.952;2024-02-04T04:06:26;10.46;65.10
83596;HTU21D;73564;45.026;38.952;2024-02-04T04:08:52;10.55;64.92
83596;HTU21D;73564;45.026;38.952;2024-02-04T04:11:18;10.60;65.08
83596;HTU21D;73564;45.026;38.952;2024-02-04T04:13:43;10.69;64.80
83596;HTU21D;73564;45.026;38.952;2024-02-04T04:16:09;10.73;64.30
83596;HTU21D;73564;45.026;38.952;2024-02-04T04:18:35;10.73;64.48
83596;HTU21D;73564;45.026;38.952;2024-02-04T04:21:01;10.75;64.36
83596;HTU21D;73564;45.026;38.952;2024-02-04T04:23:26;10.74;64.16
83596;HTU21D;73564;45.026;38.952;2024-02-04T04:25:52;10.69;64.44
83596;HTU21D;73564;45.026;38.952;2024-02-04T04:28:18;10.72;64.65
83596;HTU21D;73564;45.026;38.952;2024-02-04T04:30:44;10.78;64.25
83596;HTU21D;73564;45.026;38.952;2024-02-04T04:33:09;10.74;64.22
83596;HTU21D;73564;45.026;38.952;2024-02-04T04:35:37;10.69;64.38
83596;HTU21D;73564;45.026;38.952;2024-02-04T04:38:03;10.68;64.48
83596;HTU21D;73564;45.026;38.952;2024-02-04T04:40:29;10.70;64.57
83596;HTU21D;73564;45.026;38.952;2024-02-04T04:42:55;10.69;64.34
83596;HTU21D;73564;45.026;38.952;2024-02-04T04:45:21;10.68;64.61
83596;HTU21D;73564;45.026;38.952;2024-02-04T04:47:47;10.69;64.43
83596;HTU21D;73564;45.026;38.952;2024-02-04T04:50:13;10.66;64.37
83596;HTU21D;73564;45.026;38.952;2024-02-04T04:52:38;10.63;64.34
83596;HTU21D;73564;45.026;38.952;2024-02-04T04:55:04;10.57;64.52
83596;HTU21D;73564;45.026;38.952;2024-02-04T04:57:30;10.54;64.63
83596;HTU21D;73564;45.026;38.952;2024-02-04T04:59:56;10.54;64.77
83596;HTU21D;73564;45.026;38.952;2024-02-04T05:02:24;10.56;64.53
83596;HTU21D;73564;45.026;38.952;2024-02-04T05:04:50;10.54;64.79
83596;HTU21D;73564;45.026;38.952;2024-02-04T05:07:15;10.55;64.80
83596;HTU21D;73564;45.026;38.952;2024-02-04T05:09:41;10.53;64.97
83596;HTU21D;73564;45.026;38.952;2024-02-04T05:12:08;10.56;65.17
83596;HTU21D;73564;45.026;38.952;2024-02-04T05:14:35;10.62;65.24
83596;HTU21D;73564;45.026;38.952;2024-02-04T05:17:01;10.68;64.90
83596;HTU21D;73564;45.026;38.952;2024-02-04T05:19:26;10.67;65.14
83596;HTU21D;73564;45.026;38.952;2024-02-04T05:21:52;10.67;64.56
83596;HTU21D;73564;45.026;38.952;2024-02-04T05:24:18;10.60;64.84
83596;HTU21D;73564;45.026;38.952;2024-02-04T05:26:44;10.56;64.97
83596;HTU21D;73564;45.026;38.952;2024-02-04T05:29:10;10.54;64.99
83596;HTU21D;73564;45.026;38.952;2024-02-04T05:31:43;10.50;65.00
83596;HTU21D;73564;45.026;38.952;2024-02-04T05:34:09;10.48;65.21
83596;HTU21D;73564;45.026;38.952;2024-02-04T05:36:36;10.45;65.23
83596;HTU21D;73564;45.026;38.952;2024-02-04T05:39:11;10.44;65.44
83596;HTU21D;73564;45.026;38.952;2024-02-04T05:41:38;10.45;65.53
83596;HTU21D;73564;45.026;38.952;2024-02-04T05:44:04;10.48;65.66
83596;HTU21D;73564;45.026;38.952;2024-02-04T05:46:30;10.55;65.83
83596;HTU21D;73564;45.026;38.952;2024-02-04T05:48:55;10.63;65.50
83596;HTU21D;73564;45.026;38.952;2024-02-04T05:51:22;10.65;65.31
83596;HTU21D;73564;45.026;38.952;2024-02-04T05:53:47;10.66;65.46
83596;HTU21D;73564;45.026;38.952;2024-02-04T05:56:13;10.70;65.37
83596;HTU21D;73564;45.026;38.952;2024-02-04T05:58:39;10.73;65.33
83596;HTU21D;73564;45.026;38.952;2024-02-04T06:01:06;10.75;65.18
83596;HTU21D;73564;45.026;38.952;2024-02-04T06:03:31;10.72;65.08
83596;HTU21D;73564;45.026;38.952;2024-02-04T06:05:57;10.66;65.19
83596;HTU21D;73564;45.026;38.952;2024-02-04T06:08:23;10.64;65.47
83596;HTU21D;73564;45.026;38.952;2024-02-04T06:10:49;10.60;65.35
83596;HTU21D;73564;45.026;38.952;2024-02-04T06:13:14;10.59;65.59
83596;HTU21D;73564;45.026;38.952;2024-02-04T06:15:40;10.65;65.45
83596;HTU21D;73564;45.026;38.952;2024-02-04T06:18:06;10.66;65.43
83596;HTU21D;73564;45.026;38.952;2024-02-04T06:20:32;10.66;65.65
83596;HTU21D;73564;45.026;38.952;2024-02-04T06:22:57;10.70;65.56
83596;HTU21D;73564;45.026;38.952;2024-02-04T06:25:23;10.75;65.52
83596;HTU21D;73564;45.026;38.952;2024-02-04T06:27:49;10.81;65.43
83596;HTU21D;73564;45.026;38.952;2024-02-04T06:30:15;10.86;65.17
83596;HTU21D;73564;45.026;38.952;2024-02-04T06:32:41;10.81;64.81
83596;HTU21D;73564;45.026;38.952;2024-02-04T06:35:07;10.69;64.92
83596;HTU21D;73564;45.026;38.952;2024-02-04T06:37:33;10.55;65.21
83596;HTU21D;73564;45.026;38.952;2024-02-04T06:39:59;10.44;65.71
83596;HTU21D;73564;45.026;38.952;2024-02-04T06:42:24;10.46;66.04
83596;HTU21D;73564;45.026;38.952;2024-02-04T06:44:50;10.52;65.87
83596;HTU21D;73564;45.026;38.952;2024-02-04T06:47:16;10.56;65.89
83596;HTU21D;73564;45.026;38.952;2024-02-04T06:49:45;10.56;66.27
83596;HTU21D;73564;45.026;38.952;2024-02-04T06:52:11;10.59;66.64
83596;HTU21D;73564;45.026;38.952;2024-02-04T06:54:36;10.64;66.04
83596;HTU21D;73564;45.026;38.952;2024-02-04T06:57:02;10.64;66.22
83596;HTU21D;73564;45.026;38.952;2024-02-04T06:59:28;10.63;66.44
83596;HTU21D;73564;45.026;38.952;2024-02-04T07:01:54;10.60;66.24
83596;HTU21D;73564;45.026;38.952;2024-02-04T07:04:20;10.55;66.57
83596;HTU21D;73564;45.026;38.952;2024-02-04T07:06:47;10.56;66.98
83596;HTU21D;73564;45.026;38.952;2024-02-04T07:09:13;10.58;66.90
83596;HTU21D;73564;45.026;38.952;2024-02-04T07:11:39;10.63;66.81
83596;HTU21D;73564;45.026;38.952;2024-02-04T07:14:05;10.66;66.88
83596;HTU21D;73564;45.026;38.952;2024-02-04T07:16:31;10.69;66.67
83596;HTU21D;73564;45.026;38.952;2024-02-04T07:18:57;10.70;66.66
83596;HTU21D;73564;45.026;38.952;2024-02-04T07:21:23;10.73;66.84
83596;HTU21D;73564;45.026;38.952;2024-02-04T07:23:49;10.84;66.78
83596;HTU21D;73564;45.026;38.952;2024-02-04T07:26:14;10.93;66.51
83596;HTU21D;73564;45.026;38.952;2024-02-04T07:28:40;10.93;66.01
83596;HTU21D;73564;45.026;38.952;2024-02-04T07:31:06;10.82;66.22
83596;HTU21D;73564;45.026;38.952;2024-02-04T07:33:31;10.73;66.52
83596;HTU21D;73564;45.026;38.952;2024-02-04T07:35:57;10.69;66.65
83596;HTU21D;73564;45.026;38.952;2024-02-04T07:38:23;10.65;66.93
83596;HTU21D;73564;45.026;38.952;2024-02-04T07:40:49;10.59;67.14
83596;HTU21D;73564;45.026;38.952;2024-02-04T07:43:14;10.51;67.78
83596;HTU21D;73564;45.026;38.952;2024-02-04T07:45:40;10.51;67.72
83596;HTU21D;73564;45.026;38.952;2024-02-04T07:48:06;10.52;68.80
83596;HTU21D;73564;45.026;38.952;2024-02-04T07:50:32;10.60;68.40
83596;HTU21D;73564;45.026;38.952;2024-02-04T07:52:58;10.66;68.62
83596;HTU21D;73564;45.026;38.952;2024-02-04T07:55:24;10.70;69.07
83596;HTU21D;73564;45.026;38.952;2024-02-04T07:57:49;10.81;69.24
83596;HTU21D;73564;45.026;38.952;2024-02-04T08:00:15;10.90;68.68
83596;HTU21D;73564;45.026;38.952;2024-02-04T08:02:44;10.99;68.89
83596;HTU21D;73564;45.026;38.952;2024-02-04T08:05:10;11.08;68.75
83596;HTU21D;73564;45.026;38.952;2024-02-04T08:07:35;11.12;68.68
83596;HTU21D;73564;45.026;38.952;2024-02-04T08:10:01;11.12;68.44
83596;HTU21D;73564;45.026;38.952;2024-02-04T08:12:27;11.13;69.22
83596;HTU21D;73564;45.026;38.952;2024-02-04T08:14:53;11.19;69.23
83596;HTU21D;73564;45.026;38.952;2024-02-04T08:17:18;11.27;69.49
83596;HTU21D;73564;45.026;38.952;2024-02-04T08:19:44;11.39;69.16
83596;HTU21D;73564;45.026;38.952;2024-02-04T08:22:10;11.46;69.04
83596;HTU21D;73564;45.026;38.952;2024-02-04T08:24:35;11.55;69.39
83596;HTU21D;73564;45.026;38.952;2024-02-04T08:27:01;11.62;69.25
83596;HTU21D;73564;45.026;38.952;2024-02-04T08:29:28;11.63;71.78
83596;HTU21D;73564;45.026;38.952;2024-02-04T08:31:54;11.64;68.99
83596;HTU21D;73564;45.026;38.952;2024-02-04T08:34:20;11.61;68.77
83596;HTU21D;73564;45.026;38.952;2024-02-04T08:36:49;11.54;68.80
83596;HTU21D;73564;45.026;38.952;2024-02-04T08:39:15;11.47;68.64
83596;HTU21D;73564;45.026;38.952;2024-02-04T08:41:41;11.33;68.60
83596;HTU21D;73564;45.026;38.952;2024-02-04T08:44:07;11.20;68.84
83596;HTU21D;73564;45.026;38.952;2024-02-04T08:46:33;11.08;69.43
83596;HTU21D;73564;45.026;38.952;2024-02-04T08:48:59;11.03;69.89
83596;HTU21D;73564;45.026;38.952;2024-02-04T08:51:24;11.02;69.74
83596;HTU21D;73564;45.026;38.952;2024-02-04T08:53:50;10.99;70.39
83596;HTU21D;73564;45.026;38.952;2024-02-04T08:56:16;11.11;70.81
83596;HTU21D;73564;45.026;38.952;2024-02-04T08:58:42;11.20;70.71
83596;HTU21D;73564;45.026;38.952;2024-02-04T09:01:07;11.27;70.01
83596;HTU21D;73564;45.026;38.952;2024-02-04T09:03:33;11.24;69.79
83596;HTU21D;73564;45.026;38.952;2024-02-04T09:05:59;11.16;69.65
83596;HTU21D;73564;45.026;38.952;2024-02-04T09:08:25;11.07;69.88
83596;HTU21D;73564;45.026;38.952;2024-02-04T09:10:51;10.99;70.04
83596;HTU21D;73564;45.026;38.952;2024-02-04T09:13:17;10.92;70.12
83596;HTU21D;73564;45.026;38.952;2024-02-04T09:15:43;10.92;70.70
83596;HTU21D;73564;45.026;38.952;2024-02-04T09:18:09;10.97;70.03
83596;HTU21D;73564;45.026;38.952;2024-02-04T09:20:35;10.98;70.47
83596;HTU21D;73564;45.026;38.952;2024-02-04T09:23:01;11.07;70.19
83596;HTU21D;73564;45.026;38.952;2024-02-04T09:25:26;11.12;70.10
83596;HTU21D;73564;45.026;38.952;2024-02-04T09:27:52;11.15;69.51
83596;HTU21D;73564;45.026;38.952;2024-02-04T09:30:18;11.15;69.81
83596;HTU21D;73564;45.026;38.952;2024-02-04T09:32:43;11.22;69.95
83596;HTU21D;73564;45.026;38.952;2024-02-04T09:35:09;11.28;69.79
83596;HTU21D;73564;45.026;38.952;2024-02-04T09:37:35;11.34;69.58
83596;HTU21D;73564;45.026;38.952;2024-02-04T09:40:01;11.34;69.21
83596;HTU21D;73564;45.026;38.952;2024-02-04T09:42:27;11.36;69.50
83596;HTU21D;73564;45.026;38.952;2024-02-04T09:44:53;11.42;69.53
83596;HTU21D;73564;45.026;38.952;2024-02-04T09:47:20;11.48;69.36
83596;HTU21D;73564;45.026;38.952;2024-02-04T09:49:46;11.54;68.97
83596;HTU21D;73564;45.026;38.952;2024-02-04T09:52:13;11.58;69.07
83596;HTU21D;73564;45.026;38.952;2024-02-04T09:54:45;11.62;68.50
83596;HTU21D;73564;45.026;38.952;2024-02-04T09:57:13;11.58;68.58
83596;HTU21D;73564;45.026;38.952;2024-02-04T09:59:39;11.53;69.26
83596;HTU21D;73564;45.026;38.952;2024-02-04T10:02:06;11.53;68.51
83596;HTU21D;73564;45.026;38.952;2024-02-04T10:04:33;11.52;68.66
83596;HTU21D;73564;45.026;38.952;2024-02-04T10:06:59;11.53;68.71
83596;HTU21D;73564;45.026;38.952;2024-02-04T10:09:25;11.57;68.69
83596;HTU21D;73564;45.026;38.952;2024-02-04T10:11:51;11.62;68.44
83596;HTU21D;73564;45.026;38.952;2024-02-04T10:14:17;11.60;68.34
83596;HTU21D;73564;45.026;38.952;2024-02-04T10:16:45;11.59;68.33
83596;HTU21D;73564;45.026;38.952;2024-02-04T10:19:11;11.58;68.30
83596;HTU21D;73564;45.026;38.952;2024-02-04T10:21:37;11.56;68.58
83596;HTU21D;73564;45.026;38.952;2024-02-04T10:24:03;11.60;68.33
83596;HTU21D;73564;45.026;38.952;2024-02-04T10:26:29;11.61;68.23
83596;HTU21D;73564;45.026;38.952;2024-02-04T10:29:00;11.63;68.12
83596;HTU21D;73564;45.026;38.952;2024-02-04T10:31:29;11.62;67.82
83596;HTU21D;73564;45.026;38.952;2024-02-04T10:33:55;11.57;67.94
83596;HTU21D;73564;45.026;38.952;2024-02-04T10:36:21;11.55;67.91
83596;HTU21D;73564;45.026;38.952;2024-02-04T10:38:47;11.49;67.70
83596;HTU21D;73564;45.026;38.952;2024-02-04T10:41:17;11.44;67.49
83596;HTU21D;73564;45.026;38.952;2024-02-04T10:43:44;11.38;67.49
83596;HTU21D;73564;45.026;38.952;2024-02-04T10:46:13;11.33;67.36
83596;HTU21D;73564;45.026;38.952;2024-02-04T10:48:43;11.26;67.46
83596;HTU21D;73564;45.026;38.952;2024-02-04T10:51:13;11.27;67.62
83596;HTU21D;73564;45.026;38.952;2024-02-04T10:53:44;11.34;67.59
83596;HTU21D;73564;45.026;38.952;2024-02-04T10:56:30;11.41;67.25
83596;HTU21D;73564;45.026;38.952;2024-02-04T10:58:56;11.38;67.21
83596;HTU21D;73564;45.026;38.952;2024-02-04T11:01:26;11.27;67.42
83596;HTU21D;73564;45.026;38.952;2024-02-04T11:03:52;11.22;67.47
83596;HTU21D;73564;45.026;38.952;2024-02-04T11:06:20;11.13;67.75
83596;HTU21D;73564;45.026;38.952;2024-02-04T11:08:46;11.07;67.97
83596;HTU21D;73564;45.026;38.952;2024-02-04T11:11:12;11.05;68.04
83596;HTU21D;73564;45.026;38.952;2024-02-04T11:13:42;11.04;68.16
83596;HTU21D;73564;45.026;38.952;2024-02-04T11:16:31;11.02;68.17
83596;HTU21D;73564;45.026;38.952;2024-02-04T11:27:22;10.93;68.33
83596;HTU21D;73564;45.026;38.952;2024-02-04T11:29:50;10.92;68.61
83596;HTU21D;73564;45.026;38.952;2024-02-04T11:32:17;10.92;68.71
83596;HTU21D;73564;45.026;38.952;2024-02-04T11:34:44;10.96;68.79
83596;HTU21D;73564;45.026;38.952;2024-02-04T11:37:17;11.01;68.80
83596;HTU21D;73564;45.026;38.952;2024-02-04T11:40:03;11.04;68.66
83596;HTU21D;73564;45.026;38.952;2024-02-04T11:42:32;11.02;68.87
83596;HTU21D;73564;45.026;38.952;2024-02-04T11:45:08;11.07;69.02
83596;HTU21D;73564;45.026;38.952;2024-02-04T11:47:37;11.09;68.98
83596;HTU21D;73564;45.026;38.952;2024-02-04T11:50:03;11.12;69.10
83596;HTU21D;73564;45.026;38.952;2024-02-04T11:52:29;11.15;68.96
83596;HTU21D;73564;45.026;38.952;2024-02-04T11:54:55;11.17;69.16
83596;HTU21D;73564;45.026;38.952;2024-02-04T11:57:21;11.24;69.06
83596;HTU21D;73564;45.026;38.952;2024-02-04T11:59:48;11.22;69.06
83596;HTU21D;73564;45.026;38.952;2024-02-04T12:02:18;11.18;69.26
83596;HTU21D;73564;45.026;38.952;2024-02-04T12:04:48;11.19;69.11
83596;HTU21D;73564;45.026;38.952;2024-02-04T12:07:14;11.19;69.19
83596;HTU21D;73564;45.026;38.952;2024-02-04T12:09:41;11.22;69.27
83596;HTU21D;73564;45.026;38.952;2024-02-04T12:12:07;11.25;69.36
83596;HTU21D;73564;45.026;38.952;2024-02-04T12:14:35;11.28;69.42
83596;HTU21D;73564;45.026;38.952;2024-02-04T12:17:10;11.30;69.48
83596;HTU21D;73564;45.026;38.952;2024-02-04T12:19:37;11.32;69.38
83596;HTU21D;73564;45.026;38.952;2024-02-04T12:22:04;11.33;69.30
83596;HTU21D;73564;45.026;38.952;2024-02-04T12:24:37;11.31;69.34
83596;HTU21D;73564;45.026;38.952;2024-02-04T12:27:04;11.30;69.39
83596;HTU21D;73564;45.026;38.952;2024-02-04T12:29:31;11.30;69.54
83596;HTU21D;73564;45.026;38.952;2024-02-04T12:32:01;11.29;69.42
83596;HTU21D;73564;45.026;38.952;2024-02-04T12:34:30;11.28;69.55
83596;HTU21D;73564;45.026;38.952;2024-02-04T12:37:00;11.27;69.56
83596;HTU21D;73564;45.026;38.952;2024-02-04T12:39:27;11.26;69.58
83596;HTU21D;73564;45.026;38.952;2024-02-04T12:41:53;11.24;69.56
83596;HTU21D;73564;45.026;38.952;2024-02-04T12:44:19;11.18;69.65
83596;HTU21D;73564;45.026;38.952;2024-02-04T12:46:45;11.17;69.63
83596;HTU21D;73564;45.026;38.952;2024-02-04T12:49:19;11.16;69.63
83596;HTU21D;73564;45.026;38.952;2024-02-04T12:51:46;11.12;69.75
83596;HTU21D;73564;45.026;38.952;2024-02-04T12:54:12;11.11;69.87
83596;HTU21D;73564;45.026;38.952;2024-02-04T12:56:54;11.11;69.81
83596;HTU21D;73564;45.026;38.952;2024-02-04T12:59:27;11.09;69.91
83596;HTU21D;73564;45.026;38.952;2024-02-04T13:02:00;11.11;69.94
83596;HTU21D;73564;45.026;38.952;2024-02-04T13:04:39;11.11;69.82
83596;HTU21D;73564;45.026;38.952;2024-02-04T13:07:10;11.10;69.93
83596;HTU21D;73564;45.026;38.952;2024-02-04T13:09:37;11.09;69.81
83596;HTU21D;73564;45.026;38.952;2024-02-04T13:12:07;11.07;69.83
83596;HTU21D;73564;45.026;38.952;2024-02-04T13:14:34;11.01;69.97
83596;HTU21D;73564;45.026;38.952;2024-02-04T13:17:00;11.00;69.97
83596;HTU21D;73564;45.026;38.952;2024-02-04T13:19:33;11.01;69.92
83596;HTU21D;73564;45.026;38.952;2024-02-04T13:21:59;10.98;70.07
83596;HTU21D;73564;45.026;38.952;2024-02-04T13:24:25;10.98;70.07
83596;HTU21D;73564;45.026;38.952;2024-02-04T13:26:51;10.99;69.98
83596;HTU21D;73564;45.026;38.952;2024-02-04T13:29:17;10.99;70.03
83596;HTU21D;73564;45.026;38.952;2024-02-04T13:31:43;11.02;69.90
83596;HTU21D;73564;45.026;38.952;2024-02-04T13:34:08;11.01;70.01
83596;HTU21D;73564;45.026;38.952;2024-02-04T13:36:34;11.00;70.13
83596;HTU21D;73564;45.026;38.952;2024-02-04T13:39:00;11.01;70.09
83596;HTU21D;73564;45.026;38.952;2024-02-04T13:41:25;11.00;70.13
83596;HTU21D;73564;45.026;38.952;2024-02-04T13:43:51;11.02;70.16
83596;HTU21D;73564;45.026;38.952;2024-02-04T13:46:17;11.00;70.32
83596;HTU21D;73564;45.026;38.952;2024-02-04T13:48:43;11.04;70.24
83596;HTU21D;73564;45.026;38.952;2024-02-04T13:51:09;11.07;70.13
83596;HTU21D;73564;45.026;38.952;2024-02-04T13:53:35;11.05;70.16
83596;HTU21D;73564;45.026;38.952;2024-02-04T13:56:01;11.07;70.09
83596;HTU21D;73564;45.026;38.952;2024-02-04T13:58:27;11.08;70.03
83596;HTU21D;73564;45.026;38.952;2024-02-04T14:00:53;11.10;70.10
83596;HTU21D;73564;45.026;38.952;2024-02-04T14:03:19;11.11;69.95
83596;HTU21D;73564;45.026;38.952;2024-02-04T14:05:45;11.11;70.03
83596;HTU21D;73564;45.026;38.952;2024-02-04T14:08:10;11.13;69.98
83596;HTU21D;73564;45.026;38.952;2024-02-04T14:10:36;11.14;70.07
83596;HTU21D;73564;45.026;38.952;2024-02-04T14:13:02;11.15;69.99
83596;HTU21D;73564;45.026;38.952;2024-02-04T14:15:28;11.15;70.12
83596;HTU21D;73564;45.026;38.952;2024-02-04T14:17:55;11.18;70.02
83596;HTU21D;73564;45.026;38.952;2024-02-04T14:20:21;11.19;69.98
83596;HTU21D;73564;45.026;38.952;2024-02-04T14:22:47;11.20;69.87
83596;HTU21D;73564;45.026;38.952;2024-02-04T14:25:13;11.20;69.76
83596;HTU21D;73564;45.026;38.952;2024-02-04T14:27:39;11.17;69.94
83596;HTU21D;73564;45.026;38.952;2024-02-04T14:30:05;11.16;69.97
83596;HTU21D;73564;45.026;38.952;2024-02-04T14:32:32;11.07;70.10
83596;HTU21D;73564;45.026;38.952;2024-02-04T14:34:58;11.07;70.38
83596;HTU21D;73564;45.026;38.952;2024-02-04T14:37:24;11.09;70.22
83596;HTU21D;73564;45.026;38.952;2024-02-04T14:39:49;11.11;70.34
83596;HTU21D;73564;45.026;38.952;2024-02-04T14:42:16;11.15;70.42
83596;HTU21D;73564;45.026;38.952;2024-02-04T14:44:44;11.19;70.35
83596;HTU21D;73564;45.026;38.952;2024-02-04T14:47:09;11.25;70.42
83596;HTU21D;73564;45.026;38.952;2024-02-04T14:49:36;11.34;70.24
83596;HTU21D;73564;45.026;38.952;2024-02-04T14:52:03;11.42;69.99
83596;HTU21D;73564;45.026;38.952;2024-02-04T14:54:28;11.42;69.89
83596;HTU21D;73564;45.026;38.952;2024-02-04T14:56:54;11.48;70.06
83596;HTU21D;73564;45.026;38.952;2024-02-04T14:59:20;11.55;69.85
83596;HTU21D;73564;45.026;38.952;2024-02-04T15:01:46;11.58;69.65
83596;HTU21D;73564;45.026;38.952;2024-02-04T15:04:12;11.59;69.61
83596;HTU21D;73564;45.026;38.952;2024-02-04T15:06:42;11.61;69.36
83596;HTU21D;73564;45.026;38.952;2024-02-04T15:09:09;11.59;69.33
83596;HTU21D;73564;45.026;38.952;2024-02-04T15:11:36;11.56;69.40
83596;HTU21D;73564;45.026;38.952;2024-02-04T15:14:02;11.47;69.54
83596;HTU21D;73564;45.026;38.952;2024-02-04T15:16:28;11.44;69.36